createdAt,value
2023-05-10T05:03:06.223Z,465.00
2023-05-10T05:04:06.152Z,464.00
2023-05-10T05:05:06.184Z,466.00
2023-05-10T05:06:07.220Z,465.00
2023-05-10T05:07:06.226Z,464.00
2023-05-10T05:08:06.245Z,466.00
2023-05-10T05:09:06.315Z,467.00
2023-05-10T05:10:07.311Z,467.00
2023-05-10T05:11:07.341Z,469.00
2023-05-10T05:12:06.414Z,470.00
2023-05-10T05:13:06.350Z,467.00
2023-05-10T05:14:07.319Z,465.00
2023-05-10T05:15:09.040Z,466.00
2023-05-10T05:16:06.453Z,467.00
2023-05-10T05:17:07.343Z,467.00
2023-05-10T05:18:06.353Z,467.00
2023-05-10T05:19:06.363Z,469.00
2023-05-10T05:20:07.346Z,468.00
2023-05-10T05:21:07.341Z,467.00
2023-05-10T05:22:06.325Z,467.00
2023-05-10T05:23:06.315Z,468.00
2023-05-10T05:24:06.302Z,467.00
2023-05-10T05:25:06.292Z,468.00
2023-05-10T05:26:07.286Z,469.00
2023-05-10T05:27:07.275Z,467.00
2023-05-10T05:28:07.316Z,467.00
2023-05-10T05:29:06.288Z,466.00
2023-05-10T05:30:07.272Z,465.00
2023-05-10T05:31:06.338Z,465.00
2023-05-10T05:32:07.313Z,467.00
2023-05-10T05:33:07.283Z,468.00
2023-05-10T05:34:07.232Z,467.00
2023-05-10T05:35:06.250Z,467.00
2023-05-10T05:36:06.227Z,466.00
2023-05-10T05:37:06.242Z,464.00
2023-05-10T05:38:07.242Z,467.00
2023-05-10T05:39:07.193Z,469.00
2023-05-10T05:40:07.172Z,471.00
2023-05-10T05:41:06.162Z,470.00
2023-05-10T05:42:06.594Z,468.00
2023-05-10T05:43:07.139Z,467.00
2023-05-10T05:44:06.149Z,464.00
2023-05-10T05:45:06.165Z,464.00
2023-05-10T05:46:07.239Z,462.00
2023-05-10T05:47:07.282Z,464.00
2023-05-10T05:48:07.376Z,464.00
2023-05-10T05:49:07.398Z,465.00
2023-05-10T05:50:07.438Z,466.00
2023-05-10T05:51:07.389Z,469.00
2023-05-10T05:52:07.556Z,467.00
2023-05-10T05:53:07.605Z,471.00
2023-05-10T05:54:07.661Z,472.00
2023-05-10T05:55:07.712Z,471.00
2023-05-10T05:56:07.786Z,470.00
2023-05-10T05:57:07.824Z,470.00
2023-05-10T05:58:07.869Z,473.00
2023-05-10T05:59:08.008Z,472.00
2023-05-10T06:00:08.043Z,472.00
2023-05-10T06:01:08.084Z,472.00
2023-05-10T06:02:08.664Z,473.00
2023-05-10T06:03:07.306Z,470.00
2023-05-10T06:04:07.393Z,470.00
2023-05-10T06:05:07.283Z,475.00
2023-05-10T06:06:08.373Z,495.00
2023-05-10T06:07:08.403Z,512.00
2023-05-10T06:08:08.419Z,556.00
2023-05-10T06:09:07.479Z,567.00
2023-05-10T06:10:08.517Z,630.00
2023-05-10T06:11:08.564Z,636.00
2023-05-10T06:12:07.606Z,620.00
2023-05-10T06:13:07.732Z,625.00
2023-05-10T06:14:08.677Z,550.00
2023-05-10T06:15:08.723Z,564.00
2023-05-10T06:16:08.719Z,592.00
2023-05-10T06:17:07.773Z,635.00
2023-05-10T06:18:08.838Z,644.00
2023-05-10T06:19:08.845Z,664.00
2023-05-10T06:20:08.860Z,600.00
2023-05-10T06:21:08.888Z,622.00
2023-05-10T06:22:07.943Z,621.00
2023-05-10T06:23:07.924Z,627.00
2023-05-10T06:24:08.938Z,650.00
2023-05-10T06:25:07.956Z,648.00
2023-05-10T06:26:08.963Z,642.00
2023-05-10T06:27:08.002Z,638.00
2023-05-10T06:28:07.994Z,673.00
2023-05-10T06:29:08.967Z,692.00
2023-05-10T06:30:13.023Z,695.00
2023-05-10T06:31:08.040Z,732.00
2023-05-10T06:32:09.085Z,713.00
2023-05-10T06:33:09.122Z,700.00
2023-05-10T06:34:07.976Z,707.00
2023-05-10T06:35:08.976Z,768.00
2023-05-10T06:36:07.997Z,741.00
2023-05-10T06:37:09.066Z,732.00
2023-05-10T06:38:08.008Z,773.00
2023-05-10T06:39:08.990Z,772.00
2023-05-10T06:40:08.008Z,779.00
2023-05-10T06:41:08.974Z,759.00
2023-05-10T06:42:08.961Z,753.00
2023-05-10T06:43:08.958Z,768.00
2023-05-10T06:44:08.961Z,799.00
2023-05-10T06:45:08.965Z,806.00
2023-05-10T06:46:08.990Z,861.00
2023-05-10T06:47:08.964Z,842.00
2023-05-10T06:48:07.984Z,828.00
2023-05-10T06:49:08.973Z,835.00
2023-05-10T06:50:07.984Z,831.00
2023-05-10T06:51:07.963Z,818.00
2023-05-10T06:52:09.145Z,861.00
2023-05-10T06:53:08.969Z,803.00
2023-05-10T06:54:09.042Z,794.00
2023-05-10T06:55:08.975Z,786.00
2023-05-10T06:56:07.971Z,779.00
2023-05-10T06:57:19.509Z,824.00
2023-05-10T06:58:08.972Z,852.00
2023-05-10T06:59:09.040Z,869.00
2023-05-10T07:00:08.076Z,898.00
2023-05-10T07:01:08.041Z,894.00
2023-05-10T07:02:09.065Z,884.00
2023-05-10T07:03:07.977Z,891.00
2023-05-10T07:04:07.935Z,903.00
2023-05-10T07:05:07.921Z,939.00
2023-05-10T07:06:13.326Z,960.00
2023-05-10T07:07:08.904Z,1005.00
2023-05-10T07:08:07.893Z,1005.00
2023-05-10T07:09:08.906Z,1034.00
2023-05-10T07:10:08.921Z,1046.00
2023-05-10T07:11:08.888Z,1024.00
2023-05-10T07:12:11.054Z,1038.00
2023-05-10T07:13:08.957Z,1046.00
2023-05-10T07:14:08.894Z,1044.00
2023-05-10T07:15:07.864Z,1056.00
2023-05-10T07:16:08.938Z,1042.00
2023-05-10T07:17:08.862Z,1104.00
2023-05-10T07:18:08.912Z,1101.00
2023-05-10T07:19:08.834Z,1107.00
2023-05-10T07:20:07.823Z,971.00
2023-05-10T07:21:07.861Z,959.00
2023-05-10T07:22:07.837Z,1065.00
2023-05-10T07:23:07.798Z,1033.00
2023-05-10T07:24:07.799Z,1077.00
2023-05-10T07:25:08.800Z,1087.00
2023-05-10T07:26:08.819Z,1072.00
2023-05-10T07:27:07.783Z,1004.00
2023-05-10T07:28:08.764Z,1005.00
2023-05-10T07:29:08.757Z,989.00
2023-05-10T07:30:08.761Z,919.00
2023-05-10T07:31:07.790Z,936.00
2023-05-10T07:32:08.811Z,933.00
2023-05-10T07:33:07.864Z,1092.00
2023-05-10T07:34:08.912Z,1128.00
2023-05-10T07:35:08.000Z,1022.00
2023-05-10T07:36:09.001Z,935.00
2023-05-10T07:37:08.140Z,920.00
2023-05-10T07:38:08.112Z,872.00
2023-05-10T07:39:09.197Z,832.00
2023-05-10T07:40:09.244Z,818.00
2023-05-10T07:41:08.287Z,810.00
2023-05-10T07:42:09.389Z,808.00
2023-05-10T07:43:08.334Z,803.00
2023-05-10T07:44:08.321Z,803.00
2023-05-10T07:45:08.343Z,797.00
2023-05-10T07:46:08.405Z,792.00
2023-05-10T07:47:09.666Z,783.00
2023-05-10T07:48:09.530Z,793.00
2023-05-10T07:49:09.347Z,766.00
2023-05-10T07:50:09.350Z,764.00
2023-05-10T07:51:09.326Z,752.00
2023-05-10T07:52:09.664Z,738.00
2023-05-10T07:53:09.492Z,736.00
2023-05-10T07:54:09.343Z,737.00
2023-05-10T07:55:09.383Z,736.00
2023-05-10T07:56:09.413Z,739.00
2023-05-10T07:57:08.373Z,742.00
2023-05-10T07:58:09.423Z,749.00
2023-05-10T07:59:11.330Z,749.00
2023-05-10T08:00:08.347Z,749.00
2023-05-10T08:01:08.330Z,745.00
2023-05-10T08:02:08.414Z,745.00
2023-05-10T08:03:08.516Z,743.00
2023-05-10T08:04:09.390Z,747.00
2023-05-10T08:05:08.292Z,744.00
2023-05-10T08:06:09.281Z,739.00
2023-05-10T08:07:09.294Z,739.00
2023-05-10T08:08:08.279Z,740.00
2023-05-10T08:09:08.280Z,735.00
2023-05-10T08:10:09.272Z,730.00
2023-05-10T08:11:09.255Z,723.00
2023-05-10T08:12:09.255Z,716.00
2023-05-10T08:13:09.251Z,709.00
2023-05-10T08:14:09.253Z,708.00
2023-05-10T08:15:08.236Z,712.00
2023-05-10T08:16:09.256Z,708.00
2023-05-10T08:17:08.231Z,709.00
2023-05-10T08:18:08.237Z,706.00
2023-05-10T08:19:08.289Z,703.00
2023-05-10T08:20:08.202Z,699.00
2023-05-10T08:21:08.185Z,689.00
2023-05-10T08:22:09.199Z,678.00
2023-05-10T08:23:09.176Z,670.00
2023-05-10T08:24:09.163Z,653.00
2023-05-10T08:25:08.165Z,650.00
2023-05-10T08:26:09.144Z,646.00
2023-05-10T08:27:09.175Z,639.00
2023-05-10T08:28:09.894Z,634.00
2023-05-10T08:29:09.198Z,628.00
2023-05-10T08:30:08.374Z,628.00
2023-05-10T08:31:08.302Z,622.00
2023-05-10T08:32:09.360Z,619.00
2023-05-10T08:33:09.329Z,614.00
2023-05-10T08:34:09.320Z,610.00
2023-05-10T08:35:08.347Z,608.00
2023-05-10T08:36:09.398Z,607.00
2023-05-10T08:37:09.474Z,606.00
2023-05-10T08:38:08.489Z,605.00
2023-05-10T08:39:23.071Z,602.00
2023-05-10T08:40:09.469Z,597.00
2023-05-10T08:41:09.444Z,594.00
2023-05-10T08:42:08.467Z,590.00
2023-05-10T08:43:08.711Z,587.00
2023-05-10T08:44:09.424Z,585.00
2023-05-10T08:45:08.416Z,584.00
2023-05-10T08:46:09.505Z,582.00
2023-05-10T08:47:09.500Z,579.00
2023-05-10T08:48:09.525Z,576.00
2023-05-10T08:49:08.412Z,571.00
2023-05-10T08:50:08.402Z,567.00
2023-05-10T08:51:09.371Z,564.00
2023-05-10T08:52:09.371Z,561.00
2023-05-10T08:53:08.682Z,559.00
2023-05-10T08:54:09.364Z,556.00
2023-05-10T08:55:08.350Z,552.00
2023-05-10T08:56:09.344Z,554.00
2023-05-10T08:57:09.332Z,553.00
2023-05-10T08:58:09.713Z,556.00
2023-05-10T08:59:09.329Z,552.00
2023-05-10T09:00:08.299Z,548.00
2023-05-10T09:01:09.444Z,544.00
2023-05-10T09:02:09.334Z,545.00
2023-05-10T09:03:09.336Z,545.00
2023-05-10T09:04:09.332Z,544.00
2023-05-10T09:05:09.321Z,541.00
2023-05-10T09:06:08.266Z,536.00
2023-05-10T09:07:08.264Z,534.00
2023-05-10T09:08:09.272Z,534.00
2023-05-10T09:09:09.255Z,534.00
2023-05-10T09:10:09.249Z,534.00
2023-05-10T09:11:09.245Z,534.00
2023-05-10T09:12:08.251Z,528.00
2023-05-10T09:13:09.319Z,528.00
2023-05-10T09:14:09.240Z,528.00
2023-05-10T09:15:08.219Z,529.00
2023-05-10T09:16:20.428Z,530.00
2023-05-10T09:17:09.347Z,528.00
2023-05-10T09:18:08.290Z,529.00
2023-05-10T09:19:08.411Z,533.00
2023-05-10T09:20:09.173Z,531.00
2023-05-10T09:21:09.179Z,530.00
2023-05-10T09:22:08.157Z,529.00
2023-05-10T09:23:08.171Z,529.00
2023-05-10T09:24:09.167Z,527.00
2023-05-10T09:25:09.159Z,525.00
2023-05-10T09:26:08.150Z,525.00
2023-05-10T09:27:08.125Z,528.00
2023-05-10T09:28:09.116Z,527.00
2023-05-10T09:29:08.111Z,525.00
2023-05-10T09:30:09.098Z,523.00
2023-05-10T09:31:08.156Z,524.00
2023-05-10T09:32:09.110Z,517.00
2023-05-10T09:33:08.160Z,515.00
2023-05-10T09:34:09.111Z,513.00
2023-05-10T09:35:09.062Z,512.00
2023-05-10T09:36:09.071Z,513.00
2023-05-10T09:37:08.053Z,517.00
2023-05-10T09:38:09.069Z,517.00
2023-05-10T09:39:08.051Z,518.00
2023-05-10T09:40:09.047Z,513.00
2023-05-10T09:41:09.040Z,512.00
2023-05-10T09:42:08.038Z,510.00
2023-05-10T09:43:09.020Z,512.00
2023-05-10T09:44:09.012Z,512.00
2023-05-10T09:45:09.004Z,510.00
2023-05-10T09:46:09.017Z,512.00
2023-05-10T09:47:09.000Z,511.00
2023-05-10T09:48:09.278Z,513.00
2023-05-10T09:49:08.983Z,511.00
2023-05-10T09:50:07.985Z,509.00
2023-05-10T09:51:07.965Z,512.00
2023-05-10T09:52:09.033Z,514.00
2023-05-10T09:53:08.216Z,521.00
2023-05-10T09:54:07.971Z,521.00
2023-05-10T09:55:08.979Z,525.00
2023-05-10T09:56:08.957Z,540.00
2023-05-10T09:57:07.957Z,559.00
2023-05-10T09:58:07.936Z,570.00
2023-05-10T09:59:08.947Z,577.00
2023-05-10T10:00:08.994Z,580.00
2023-05-10T10:01:08.931Z,584.00
2023-05-10T10:02:08.927Z,589.00
2023-05-10T10:03:08.013Z,624.00
2023-05-10T10:04:07.887Z,622.00
2023-05-10T10:05:08.926Z,631.00
2023-05-10T10:06:15.989Z,639.00
2023-05-10T10:07:08.879Z,638.00
2023-05-10T10:08:08.853Z,641.00
2023-05-10T10:09:08.921Z,647.00
2023-05-10T10:10:07.819Z,653.00
2023-05-10T10:11:07.833Z,657.00
2023-05-10T10:12:08.810Z,659.00
2023-05-10T10:13:08.826Z,667.00
2023-05-10T10:14:07.800Z,665.00
2023-05-10T10:15:07.809Z,666.00
2023-05-10T10:16:08.840Z,671.00
2023-05-10T10:17:09.008Z,681.00
2023-05-10T10:18:07.836Z,689.00
2023-05-10T10:19:07.771Z,695.00
2023-05-10T10:20:08.725Z,692.00
2023-05-10T10:21:08.976Z,693.00
2023-05-10T10:22:09.014Z,699.00
2023-05-10T10:23:08.024Z,699.00
2023-05-10T10:24:08.029Z,701.00
2023-05-10T10:25:09.018Z,706.00
2023-05-10T10:26:09.029Z,709.00
2023-05-10T10:27:08.047Z,705.00
2023-05-10T10:28:09.043Z,707.00
2023-05-10T10:29:09.041Z,711.00
2023-05-10T10:30:09.039Z,715.00
2023-05-10T10:31:09.085Z,717.00
2023-05-10T10:32:08.069Z,719.00
2023-05-10T10:33:16.864Z,725.00
2023-05-10T10:34:09.059Z,730.00
2023-05-10T10:35:09.068Z,737.00
2023-05-10T10:36:08.053Z,741.00
2023-05-10T10:37:09.040Z,743.00
2023-05-10T10:38:08.052Z,746.00
2023-05-10T10:39:09.026Z,747.00
2023-05-10T10:40:08.025Z,745.00
2023-05-10T10:41:09.018Z,748.00
2023-05-10T10:42:08.014Z,750.00
2023-05-10T10:43:09.000Z,752.00
2023-05-10T10:44:09.241Z,799.00
2023-05-10T10:45:08.989Z,776.00
2023-05-10T10:46:08.981Z,774.00
2023-05-10T10:47:09.049Z,778.00
2023-05-10T10:48:07.984Z,798.00
2023-05-10T10:49:08.951Z,792.00
2023-05-10T10:50:08.964Z,803.00
2023-05-10T10:51:08.152Z,863.00
2023-05-10T10:52:08.947Z,857.00
2023-05-10T10:53:08.012Z,851.00
2023-05-10T10:54:08.974Z,844.00
2023-05-10T10:55:08.911Z,843.00
2023-05-10T10:56:07.926Z,843.00
2023-05-10T10:57:07.907Z,842.00
2023-05-10T10:58:07.911Z,855.00
2023-05-10T10:59:07.895Z,859.00
2023-05-10T11:00:08.872Z,859.00
2023-05-10T11:01:08.967Z,859.00
2023-05-10T11:02:08.884Z,857.00
2023-05-10T11:03:08.009Z,853.00
2023-05-10T11:04:08.920Z,854.00
2023-05-10T11:05:07.848Z,857.00
2023-05-10T11:06:07.838Z,863.00
2023-05-10T11:07:08.833Z,869.00
2023-05-10T11:08:08.816Z,877.00
2023-05-10T11:09:08.828Z,986.00
2023-05-10T11:10:07.841Z,988.00
2023-05-10T11:11:07.845Z,986.00
2023-05-10T11:12:07.854Z,986.00
2023-05-10T11:13:08.942Z,993.00
2023-05-10T11:14:08.974Z,1003.00
2023-05-10T11:15:09.047Z,1013.00
2023-05-10T11:16:09.120Z,1023.00
2023-05-10T11:17:09.216Z,1032.00
2023-05-10T11:18:09.201Z,1046.00
2023-05-10T11:19:08.356Z,1055.00
2023-05-10T11:20:09.245Z,1063.00
2023-05-10T11:21:08.287Z,1066.00
2023-05-10T11:22:09.310Z,1066.00
2023-05-10T11:23:08.338Z,1069.00
2023-05-10T11:24:09.374Z,1073.00
2023-05-10T11:25:09.785Z,1080.00
2023-05-10T11:26:09.435Z,1086.00
2023-05-10T11:27:09.468Z,1086.00
2023-05-10T11:28:08.494Z,1087.00
2023-05-10T11:29:09.539Z,1098.00
2023-05-10T11:30:09.510Z,1101.00
2023-05-10T11:31:08.556Z,1100.00
2023-05-10T11:32:09.547Z,1098.00
2023-05-10T11:33:09.806Z,1096.00
2023-05-10T11:34:08.628Z,1092.00
2023-05-10T11:35:08.659Z,1092.00
2023-05-10T11:36:08.697Z,1093.00
2023-05-10T11:37:09.774Z,1091.00
2023-05-10T11:38:08.829Z,1087.00
2023-05-10T11:39:10.262Z,1088.00
2023-05-10T11:40:09.974Z,1092.00
2023-05-10T11:41:10.037Z,1092.00
2023-05-10T11:42:10.074Z,1089.00
2023-05-10T11:43:09.158Z,1086.00
2023-05-10T11:44:10.194Z,1078.00
2023-05-10T11:45:10.233Z,1072.00
2023-05-10T11:46:10.319Z,1059.00
2023-05-10T11:47:09.336Z,1047.00
2023-05-10T11:48:09.422Z,980.00
2023-05-10T11:49:10.500Z,979.00
2023-05-10T11:50:09.407Z,970.00
2023-05-10T11:51:09.392Z,965.00
2023-05-10T11:52:09.384Z,956.00
2023-05-10T11:53:09.395Z,946.00
2023-05-10T11:54:10.464Z,930.00
2023-05-10T11:55:09.382Z,921.00
2023-05-10T11:56:10.386Z,911.00
2023-05-10T11:57:10.401Z,905.00
2023-05-10T11:58:09.364Z,899.00
2023-05-10T11:59:10.388Z,897.00
2023-05-10T12:00:10.364Z,875.00
2023-05-10T12:01:09.367Z,856.00
2023-05-10T12:02:10.360Z,854.00
2023-05-10T12:03:10.483Z,868.00
2023-05-10T12:04:10.455Z,907.00
2023-05-10T12:05:10.412Z,954.00
2023-05-10T12:06:10.375Z,902.00
2023-05-10T12:07:10.373Z,933.00
2023-05-10T12:08:10.371Z,912.00
2023-05-10T12:09:10.444Z,1025.00
2023-05-10T12:10:10.388Z,1003.00
2023-05-10T12:11:10.456Z,999.00
2023-05-10T12:12:10.518Z,1011.00
2023-05-10T12:13:09.608Z,1008.00
2023-05-10T12:14:10.646Z,1016.00
2023-05-10T12:15:09.688Z,1010.00
2023-05-10T12:16:10.759Z,998.00
2023-05-10T12:17:09.825Z,999.00
2023-05-10T12:18:10.895Z,995.00
2023-05-10T12:19:11.172Z,988.00
2023-05-10T12:20:09.992Z,984.00
2023-05-10T12:21:11.033Z,995.00
2023-05-10T12:22:11.089Z,990.00
2023-05-10T12:23:11.169Z,991.00
2023-05-10T12:24:10.251Z,983.00
2023-05-10T12:25:11.292Z,1000.00
2023-05-10T12:26:10.352Z,1012.00
2023-05-10T12:27:10.407Z,1012.00
2023-05-10T12:28:11.452Z,1012.00
2023-05-10T12:29:10.555Z,1001.00
2023-05-10T12:30:11.609Z,1022.00
2023-05-10T12:31:10.601Z,1020.00
2023-05-10T12:32:10.770Z,996.00
2023-05-10T12:33:10.846Z,1011.00
2023-05-10T12:34:10.765Z,989.00
2023-05-10T12:35:11.787Z,955.00
2023-05-10T12:36:11.834Z,1031.00
2023-05-10T12:37:10.897Z,870.00
2023-05-10T12:38:11.929Z,879.00
2023-05-10T12:39:10.990Z,887.00
2023-05-10T12:40:11.015Z,882.00
2023-05-10T12:41:12.093Z,874.00
2023-05-10T12:42:11.205Z,869.00
2023-05-10T12:43:11.146Z,862.00
2023-05-10T12:44:12.255Z,861.00
2023-05-10T12:45:12.237Z,859.00
2023-05-10T12:46:11.327Z,848.00
2023-05-10T12:47:12.317Z,846.00
2023-05-10T12:48:11.423Z,839.00
2023-05-10T12:49:11.453Z,947.00
2023-05-10T12:50:11.507Z,855.00
2023-05-10T12:51:11.493Z,875.00
2023-05-10T12:52:11.554Z,847.00
2023-05-10T12:53:12.585Z,906.00
2023-05-10T12:54:12.629Z,880.00
2023-05-10T12:55:12.670Z,797.00
2023-05-10T12:56:12.701Z,797.00
2023-05-10T12:57:11.726Z,798.00
2023-05-10T12:58:15.782Z,794.00
2023-05-10T12:59:12.852Z,791.00
2023-05-10T13:00:12.786Z,797.00
2023-05-10T13:01:11.796Z,807.00
2023-05-10T13:02:12.744Z,780.00
2023-05-10T13:03:12.750Z,803.00
2023-05-10T13:04:12.858Z,871.00
2023-05-10T13:05:12.766Z,836.00
2023-05-10T13:06:11.715Z,818.00
2023-05-10T13:07:12.721Z,906.00
2023-05-10T13:08:11.702Z,832.00
2023-05-10T13:09:11.718Z,881.00
2023-05-10T13:10:12.697Z,820.00
2023-05-10T13:11:11.689Z,799.00
2023-05-10T13:12:12.678Z,819.00
2023-05-10T13:13:11.680Z,821.00
2023-05-10T13:14:12.737Z,824.00
2023-05-10T13:15:11.781Z,831.00
2023-05-10T13:16:11.809Z,817.00
2023-05-10T13:17:12.881Z,808.00
2023-05-10T13:18:11.853Z,827.00
2023-05-10T13:19:11.949Z,835.00
2023-05-10T13:20:11.923Z,896.00
2023-05-10T13:21:12.965Z,861.00
2023-05-10T13:22:12.980Z,859.00
2023-05-10T13:23:12.012Z,858.00
2023-05-10T13:24:12.042Z,846.00
2023-05-10T13:25:13.072Z,828.00
2023-05-10T13:26:13.107Z,830.00
2023-05-10T13:27:12.154Z,856.00
2023-05-10T13:28:13.180Z,796.00
2023-05-10T13:29:13.211Z,787.00
2023-05-10T13:30:13.271Z,797.00
2023-05-10T13:31:13.298Z,792.00
2023-05-10T13:32:13.327Z,780.00
2023-05-10T13:33:13.364Z,772.00
2023-05-10T13:34:12.354Z,772.00
2023-05-10T13:35:13.374Z,773.00
2023-05-10T13:36:13.400Z,793.00
2023-05-10T13:37:12.428Z,804.00
2023-05-10T13:38:12.452Z,807.00
2023-05-10T13:39:13.477Z,807.00
2023-05-10T13:40:12.599Z,812.00
2023-05-10T13:41:12.511Z,814.00
2023-05-10T13:42:12.538Z,810.00
2023-05-10T13:43:13.574Z,813.00
2023-05-10T13:44:13.587Z,874.00
2023-05-10T13:45:13.608Z,850.00
2023-05-10T13:46:13.711Z,883.00
2023-05-10T13:47:13.675Z,877.00
2023-05-10T13:48:13.738Z,965.00
2023-05-10T13:49:13.754Z,1002.00
2023-05-10T13:50:12.828Z,992.00
2023-05-10T13:51:12.845Z,989.00
2023-05-10T13:52:13.865Z,961.00
2023-05-10T13:53:13.911Z,936.00
2023-05-10T13:54:13.918Z,914.00
2023-05-10T13:55:12.986Z,831.00
2023-05-10T13:56:13.988Z,828.00
2023-05-10T13:57:14.056Z,820.00
2023-05-10T13:58:14.053Z,783.00
2023-05-10T13:59:14.095Z,732.00
2023-05-10T14:00:14.146Z,699.00
2023-05-10T14:01:14.199Z,678.00
2023-05-10T14:02:13.367Z,658.00
2023-05-10T14:03:13.377Z,631.00
2023-05-10T14:04:13.336Z,628.00
2023-05-10T14:05:14.402Z,619.00
2023-05-10T14:06:13.416Z,616.00
2023-05-10T14:07:14.471Z,611.00
2023-05-10T14:08:14.525Z,610.00
2023-05-10T14:09:14.592Z,606.00
2023-05-10T14:10:14.648Z,579.00
2023-05-10T14:11:14.706Z,554.00
2023-05-10T14:12:14.905Z,547.00
2023-05-10T14:13:14.842Z,538.00
2023-05-10T14:14:14.908Z,532.00
2023-05-10T14:15:15.147Z,526.00
2023-05-10T14:16:14.053Z,526.00
2023-05-10T14:17:14.009Z,524.00
2023-05-10T14:18:15.013Z,520.00
2023-05-10T14:19:15.009Z,515.00
2023-05-10T14:20:15.051Z,513.00
2023-05-10T14:21:14.007Z,509.00
2023-05-10T14:22:15.015Z,507.00
2023-05-10T14:23:14.010Z,508.00
2023-05-10T14:24:14.026Z,509.00
2023-05-10T14:25:15.292Z,510.00
2023-05-10T14:26:14.026Z,507.00
2023-05-10T14:27:14.031Z,513.00
2023-05-10T14:28:14.061Z,511.00
2023-05-10T14:29:14.046Z,511.00
2023-05-10T14:30:15.063Z,509.00
2023-05-10T14:31:15.074Z,508.00
2023-05-10T14:32:14.185Z,504.00
2023-05-10T14:33:15.150Z,497.00
2023-05-10T14:34:15.195Z,489.00
2023-05-10T14:35:17.612Z,482.00
2023-05-10T14:36:15.215Z,478.00
2023-05-10T14:37:15.194Z,475.00
2023-05-10T14:38:15.174Z,474.00
2023-05-10T14:39:14.199Z,468.00
2023-05-10T14:40:15.178Z,465.00
2023-05-10T14:41:14.154Z,465.00
2023-05-10T14:42:14.170Z,464.00
2023-05-10T14:43:15.150Z,463.00
2023-05-10T14:44:15.138Z,461.00
2023-05-10T14:45:14.149Z,458.00
2023-05-10T14:46:14.125Z,453.00
2023-05-10T14:47:14.125Z,452.00
2023-05-10T14:48:14.117Z,451.00
2023-05-10T14:49:15.103Z,450.00
2023-05-10T14:50:21.689Z,448.00
2023-05-10T14:51:15.095Z,449.00
2023-05-10T14:52:15.099Z,449.00
2023-05-10T14:53:15.073Z,451.00
2023-05-10T14:54:14.068Z,452.00
2023-05-10T14:55:15.225Z,448.00
2023-05-10T14:56:15.056Z,449.00
2023-05-10T14:57:14.046Z,449.00
2023-05-10T14:58:15.043Z,446.00
2023-05-10T14:59:15.043Z,448.00
2023-05-10T15:00:14.043Z,449.00
2023-05-10T15:01:15.106Z,447.00
2023-05-10T15:02:14.120Z,445.00
2023-05-10T15:03:14.240Z,442.00
2023-05-10T15:04:14.128Z,442.00
2023-05-10T15:05:15.362Z,445.00
2023-05-10T15:06:15.133Z,441.00
2023-05-10T15:07:14.119Z,443.00
2023-05-10T15:08:14.130Z,440.00
2023-05-10T15:09:15.108Z,438.00
2023-05-10T15:10:14.115Z,440.00
2023-05-10T15:11:15.093Z,442.00
2023-05-10T15:12:15.084Z,444.00
2023-05-10T15:13:14.111Z,441.00
2023-05-10T15:14:14.135Z,444.00
2023-05-10T15:15:14.326Z,444.00
2023-05-10T15:16:15.293Z,445.00
2023-05-10T15:17:14.301Z,445.00
2023-05-10T15:18:14.355Z,440.00
2023-05-10T15:19:14.438Z,442.00
2023-05-10T15:20:14.466Z,449.00
2023-05-10T15:21:15.479Z,449.00
2023-05-10T15:22:15.511Z,449.00
2023-05-10T15:23:14.493Z,454.00
2023-05-10T15:24:15.595Z,459.00
2023-05-10T15:25:14.566Z,463.00
2023-05-10T15:26:15.538Z,465.00
2023-05-10T15:27:15.556Z,468.00
2023-05-10T15:28:14.548Z,474.00
2023-05-10T15:29:15.602Z,477.00
2023-05-10T16:41:05.730Z,477.00
2023-05-10T16:42:06.727Z,479.00
